sensor_id;sensor_type;location;lat;lon;timestamp;P1;durP1;ratioP1;P2;durP2;ratioP2
2772;SDS011;1394;47.044;15.744;2023-04-08T00:00:45;27.57;;;4.27;;
2772;SDS011;1394;47.044;15.744;2023-04-08T00:03:12;27.13;;;4.27;;
2772;SDS011;1394;47.044;15.744;2023-04-08T00:05:41;26.67;;;4.17;;
2772;SDS011;1394;47.044;15.744;2023-04-08T00:08:08;27.10;;;3.93;;
2772;SDS011;1394;47.044;15.744;2023-04-08T00:10:35;26.37;;;3.63;;
2772;SDS011;1394;47.044;15.744;2023-04-08T00:13:02;26.23;;;3.77;;
2772;SDS011;1394;47.044;15.744;2023-04-08T00:15:31;26.30;;;3.77;;
2772;SDS011;1394;47.044;15.744;2023-04-08T00:17:59;26.87;;;4.40;;
2772;SDS011;1394;47.044;15.744;2023-04-08T00:20:26;26.77;;;4.50;;
2772;SDS011;1394;47.044;15.744;2023-04-08T00:22:56;26.60;;;3.80;;
2772;SDS011;1394;47.044;15.744;2023-04-08T00:25:23;26.00;;;3.43;;
2772;SDS011;1394;47.044;15.744;2023-04-08T00:27:50;26.37;;;3.67;;
2772;SDS011;1394;47.044;15.744;2023-04-08T00:30:18;26.63;;;4.03;;
2772;SDS011;1394;47.044;15.744;2023-04-08T00:32:45;26.70;;;4.00;;
2772;SDS011;1394;47.044;15.744;2023-04-08T00:35:17;26.93;;;4.23;;
2772;SDS011;1394;47.044;15.744;2023-04-08T00:37:45;26.80;;;3.73;;
2772;SDS011;1394;47.044;15.744;2023-04-08T00:40:15;26.30;;;3.60;;
2772;SDS011;1394;47.044;15.744;2023-04-08T00:42:42;25.90;;;3.60;;
2772;SDS011;1394;47.044;15.744;2023-04-08T00:45:10;26.53;;;4.30;;
2772;SDS011;1394;47.044;15.744;2023-04-08T00:47:37;26.07;;;3.40;;
2772;SDS011;1394;47.044;15.744;2023-04-08T00:50:07;26.27;;;4.00;;
2772;SDS011;1394;47.044;15.744;2023-04-08T00:52:35;26.93;;;4.40;;
2772;SDS011;1394;47.044;15.744;2023-04-08T00:55:02;28.40;;;4.37;;
2772;SDS011;1394;47.044;15.744;2023-04-08T00:57:31;26.07;;;4.10;;
2772;SDS011;1394;47.044;15.744;2023-04-08T00:59:58;26.53;;;4.00;;
2772;SDS011;1394;47.044;15.744;2023-04-08T01:02:28;28.77;;;5.73;;
2772;SDS011;1394;47.044;15.744;2023-04-08T01:04:59;30.50;;;7.17;;
2772;SDS011;1394;47.044;15.744;2023-04-08T01:07:29;30.90;;;8.00;;
2772;SDS011;1394;47.044;15.744;2023-04-08T01:09:58;36.20;;;10.93;;
2772;SDS011;1394;47.044;15.744;2023-04-08T01:12:28;32.80;;;8.87;;
2772;SDS011;1394;47.044;15.744;2023-04-08T01:14:59;30.83;;;7.57;;
2772;SDS011;1394;47.044;15.744;2023-04-08T01:17:27;28.40;;;5.97;;
2772;SDS011;1394;47.044;15.744;2023-04-08T01:19:57;28.33;;;5.43;;
2772;SDS011;1394;47.044;15.744;2023-04-08T01:22:26;27.50;;;4.77;;
2772;SDS011;1394;47.044;15.744;2023-04-08T01:24:58;27.80;;;5.50;;
2772;SDS011;1394;47.044;15.744;2023-04-08T01:27:32;29.63;;;6.73;;
2772;SDS011;1394;47.044;15.744;2023-04-08T01:30:03;27.90;;;5.33;;
2772;SDS011;1394;47.044;15.744;2023-04-08T01:32:33;27.00;;;4.37;;
2772;SDS011;1394;47.044;15.744;2023-04-08T01:35:01;27.23;;;4.53;;
2772;SDS011;1394;47.044;15.744;2023-04-08T01:37:29;27.50;;;4.80;;
2772;SDS011;1394;47.044;15.744;2023-04-08T01:39:57;28.03;;;4.33;;
2772;SDS011;1394;47.044;15.744;2023-04-08T01:42:25;26.53;;;4.57;;
2772;SDS011;1394;47.044;15.744;2023-04-08T01:44:54;27.47;;;4.60;;
2772;SDS011;1394;47.044;15.744;2023-04-08T01:47:21;26.57;;;4.17;;
2772;SDS011;1394;47.044;15.744;2023-04-08T01:49:49;26.83;;;4.07;;
2772;SDS011;1394;47.044;15.744;2023-04-08T01:52:18;26.40;;;3.97;;
2772;SDS011;1394;47.044;15.744;2023-04-08T01:54:52;27.30;;;4.00;;
2772;SDS011;1394;47.044;15.744;2023-04-08T01:57:21;27.20;;;4.70;;
2772;SDS011;1394;47.044;15.744;2023-04-08T01:59:51;30.13;;;4.97;;
2772;SDS011;1394;47.044;15.744;2023-04-08T02:02:21;26.37;;;3.83;;
2772;SDS011;1394;47.044;15.744;2023-04-08T02:04:52;27.30;;;4.40;;
2772;SDS011;1394;47.044;15.744;2023-04-08T02:07:19;27.20;;;4.90;;
2772;SDS011;1394;47.044;15.744;2023-04-08T02:09:51;26.93;;;4.77;;
2772;SDS011;1394;47.044;15.744;2023-04-08T02:12:18;26.37;;;4.20;;
2772;SDS011;1394;47.044;15.744;2023-04-08T02:14:45;26.80;;;4.43;;
2772;SDS011;1394;47.044;15.744;2023-04-08T02:17:15;27.63;;;4.17;;
2772;SDS011;1394;47.044;15.744;2023-04-08T02:19:51;26.30;;;3.90;;
2772;SDS011;1394;47.044;15.744;2023-04-08T02:22:22;26.60;;;4.17;;
2772;SDS011;1394;47.044;15.744;2023-04-08T02:24:51;26.77;;;4.53;;
2772;SDS011;1394;47.044;15.744;2023-04-08T02:27:19;26.30;;;4.30;;
2772;SDS011;1394;47.044;15.744;2023-04-08T02:29:46;27.53;;;4.70;;
2772;SDS011;1394;47.044;15.744;2023-04-08T02:32:15;26.70;;;4.33;;
2772;SDS011;1394;47.044;15.744;2023-04-08T02:34:43;26.70;;;3.90;;
2772;SDS011;1394;47.044;15.744;2023-04-08T02:37:11;27.77;;;5.10;;
2772;SDS011;1394;47.044;15.744;2023-04-08T02:39:38;27.57;;;4.90;;
2772;SDS011;1394;47.044;15.744;2023-04-08T02:42:08;26.87;;;4.80;;
2772;SDS011;1394;47.044;15.744;2023-04-08T02:44:35;27.50;;;5.00;;
2772;SDS011;1394;47.044;15.744;2023-04-08T02:47:03;29.13;;;5.10;;
2772;SDS011;1394;47.044;15.744;2023-04-08T02:49:30;28.57;;;5.37;;
2772;SDS011;1394;47.044;15.744;2023-04-08T02:51:57;27.13;;;4.93;;
2772;SDS011;1394;47.044;15.744;2023-04-08T02:54:25;28.30;;;4.80;;
2772;SDS011;1394;47.044;15.744;2023-04-08T02:56:55;27.70;;;4.63;;
2772;SDS011;1394;47.044;15.744;2023-04-08T02:59:23;27.23;;;5.00;;
2772;SDS011;1394;47.044;15.744;2023-04-08T03:01:50;27.70;;;4.40;;
2772;SDS011;1394;47.044;15.744;2023-04-08T03:04:17;27.23;;;4.70;;
2772;SDS011;1394;47.044;15.744;2023-04-08T03:06:44;27.70;;;5.20;;
2772;SDS011;1394;47.044;15.744;2023-04-08T03:09:12;28.27;;;5.40;;
2772;SDS011;1394;47.044;15.744;2023-04-08T03:11:41;27.27;;;4.90;;
2772;SDS011;1394;47.044;15.744;2023-04-08T03:14:09;28.03;;;5.43;;
2772;SDS011;1394;47.044;15.744;2023-04-08T03:16:37;27.27;;;4.93;;
2772;SDS011;1394;47.044;15.744;2023-04-08T03:19:04;27.00;;;5.10;;
2772;SDS011;1394;47.044;15.744;2023-04-08T03:21:32;27.30;;;5.30;;
2772;SDS011;1394;47.044;15.744;2023-04-08T03:23:59;27.07;;;5.00;;
2772;SDS011;1394;47.044;15.744;2023-04-08T03:26:27;29.60;;;6.40;;
2772;SDS011;1394;47.044;15.744;2023-04-08T03:28:55;26.97;;;5.10;;
2772;SDS011;1394;47.044;15.744;2023-04-08T03:31:22;27.80;;;5.37;;
2772;SDS011;1394;47.044;15.744;2023-04-08T03:33:50;29.07;;;5.80;;
2772;SDS011;1394;47.044;15.744;2023-04-08T03:36:17;28.73;;;6.00;;
2772;SDS011;1394;47.044;15.744;2023-04-08T03:38:44;27.70;;;5.30;;
2772;SDS011;1394;47.044;15.744;2023-04-08T03:41:11;27.63;;;5.67;;
2772;SDS011;1394;47.044;15.744;2023-04-08T03:43:38;27.50;;;5.20;;
2772;SDS011;1394;47.044;15.744;2023-04-08T03:46:07;28.27;;;5.40;;
2772;SDS011;1394;47.044;15.744;2023-04-08T03:48:34;27.70;;;5.57;;
2772;SDS011;1394;47.044;15.744;2023-04-08T03:51:02;27.47;;;5.40;;
2772;SDS011;1394;47.044;15.744;2023-04-08T03:53:29;28.07;;;5.80;;
2772;SDS011;1394;47.044;15.744;2023-04-08T03:55:57;26.97;;;4.93;;
2772;SDS011;1394;47.044;15.744;2023-04-08T03:58:24;26.83;;;5.10;;
2772;SDS011;1394;47.044;15.744;2023-04-08T04:00:51;26.27;;;4.20;;
2772;SDS011;1394;47.044;15.744;2023-04-08T04:03:19;27.10;;;4.87;;
2772;SDS011;1394;47.044;15.744;2023-04-08T04:05:47;27.10;;;4.63;;
2772;SDS011;1394;47.044;15.744;2023-04-08T04:08:15;27.50;;;5.10;;
2772;SDS011;1394;47.044;15.744;2023-04-08T04:10:42;29.17;;;5.37;;
2772;SDS011;1394;47.044;15.744;2023-04-08T04:13:09;27.03;;;5.10;;
2772;SDS011;1394;47.044;15.744;2023-04-08T04:15:37;27.13;;;5.47;;
2772;SDS011;1394;47.044;15.744;2023-04-08T04:18:04;27.80;;;5.17;;
2772;SDS011;1394;47.044;15.744;2023-04-08T04:20:33;27.87;;;5.53;;
2772;SDS011;1394;47.044;15.744;2023-04-08T04:23:03;27.13;;;5.10;;
2772;SDS011;1394;47.044;15.744;2023-04-08T04:25:30;26.80;;;4.73;;
2772;SDS011;1394;47.044;15.744;2023-04-08T04:27:59;27.80;;;6.30;;
2772;SDS011;1394;47.044;15.744;2023-04-08T04:30:27;27.53;;;5.67;;
2772;SDS011;1394;47.044;15.744;2023-04-08T04:32:54;27.70;;;6.20;;
2772;SDS011;1394;47.044;15.744;2023-04-08T04:35:21;28.00;;;6.23;;
2772;SDS011;1394;47.044;15.744;2023-04-08T04:37:50;27.20;;;5.67;;
2772;SDS011;1394;47.044;15.744;2023-04-08T04:40:19;27.23;;;6.03;;
2772;SDS011;1394;47.044;15.744;2023-04-08T04:42:46;27.73;;;6.60;;
2772;SDS011;1394;47.044;15.744;2023-04-08T04:45:15;27.70;;;5.40;;
2772;SDS011;1394;47.044;15.744;2023-04-08T04:47:43;28.27;;;6.90;;
2772;SDS011;1394;47.044;15.744;2023-04-08T04:50:10;27.80;;;6.10;;
2772;SDS011;1394;47.044;15.744;2023-04-08T04:52:38;27.97;;;5.90;;
2772;SDS011;1394;47.044;15.744;2023-04-08T04:55:08;27.17;;;5.97;;
2772;SDS011;1394;47.044;15.744;2023-04-08T04:57:35;28.90;;;7.30;;
2772;SDS011;1394;47.044;15.744;2023-04-08T05:00:03;27.73;;;5.70;;
2772;SDS011;1394;47.044;15.744;2023-04-08T05:02:30;28.20;;;6.57;;
2772;SDS011;1394;47.044;15.744;2023-04-08T05:05:00;28.60;;;7.07;;
2772;SDS011;1394;47.044;15.744;2023-04-08T05:07:28;28.00;;;6.30;;
2772;SDS011;1394;47.044;15.744;2023-04-08T05:09:55;27.97;;;5.67;;
2772;SDS011;1394;47.044;15.744;2023-04-08T05:12:24;27.60;;;6.10;;
2772;SDS011;1394;47.044;15.744;2023-04-08T05:14:54;31.20;;;10.40;;
2772;SDS011;1394;47.044;15.744;2023-04-08T05:17:21;28.60;;;7.27;;
2772;SDS011;1394;47.044;15.744;2023-04-08T05:19:48;29.50;;;7.63;;
2772;SDS011;1394;47.044;15.744;2023-04-08T05:22:16;31.30;;;7.20;;
2772;SDS011;1394;47.044;15.744;2023-04-08T05:24:43;28.50;;;7.40;;
2772;SDS011;1394;47.044;15.744;2023-04-08T05:27:10;29.17;;;8.50;;
2772;SDS011;1394;47.044;15.744;2023-04-08T05:29:39;29.87;;;8.43;;
2772;SDS011;1394;47.044;15.744;2023-04-08T05:32:06;28.40;;;7.20;;
2772;SDS011;1394;47.044;15.744;2023-04-08T05:34:35;28.57;;;7.07;;
2772;SDS011;1394;47.044;15.744;2023-04-08T05:37:02;28.23;;;6.80;;
2772;SDS011;1394;47.044;15.744;2023-04-08T05:39:35;28.17;;;7.40;;
2772;SDS011;1394;47.044;15.744;2023-04-08T05:42:02;28.57;;;6.73;;
2772;SDS011;1394;47.044;15.744;2023-04-08T05:44:29;28.20;;;6.80;;
2772;SDS011;1394;47.044;15.744;2023-04-08T05:46:58;28.43;;;7.60;;
2772;SDS011;1394;47.044;15.744;2023-04-08T05:49:25;28.20;;;7.30;;
2772;SDS011;1394;47.044;15.744;2023-04-08T05:51:52;28.40;;;6.70;;
2772;SDS011;1394;47.044;15.744;2023-04-08T05:54:20;28.40;;;6.37;;
2772;SDS011;1394;47.044;15.744;2023-04-08T05:56:47;27.37;;;6.10;;
2772;SDS011;1394;47.044;15.744;2023-04-08T05:59:15;27.50;;;6.60;;
2772;SDS011;1394;47.044;15.744;2023-04-08T06:01:42;27.53;;;6.30;;
2772;SDS011;1394;47.044;15.744;2023-04-08T06:04:11;28.93;;;7.30;;
2772;SDS011;1394;47.044;15.744;2023-04-08T06:06:38;28.20;;;7.30;;
2772;SDS011;1394;47.044;15.744;2023-04-08T06:09:08;28.33;;;7.40;;
2772;SDS011;1394;47.044;15.744;2023-04-08T06:11:35;29.67;;;6.87;;
2772;SDS011;1394;47.044;15.744;2023-04-08T06:14:02;29.90;;;7.60;;
2772;SDS011;1394;47.044;15.744;2023-04-08T06:16:31;28.50;;;6.50;;
2772;SDS011;1394;47.044;15.744;2023-04-08T06:18:58;27.67;;;6.80;;
2772;SDS011;1394;47.044;15.744;2023-04-08T06:21:27;28.27;;;7.20;;
2772;SDS011;1394;47.044;15.744;2023-04-08T06:23:57;28.43;;;7.33;;
2772;SDS011;1394;47.044;15.744;2023-04-08T06:26:25;29.27;;;7.10;;
2772;SDS011;1394;47.044;15.744;2023-04-08T06:28:52;29.30;;;7.80;;
2772;SDS011;1394;47.044;15.744;2023-04-08T06:31:21;28.43;;;7.27;;
2772;SDS011;1394;47.044;15.744;2023-04-08T06:33:48;28.87;;;7.60;;
2772;SDS011;1394;47.044;15.744;2023-04-08T06:36:16;29.40;;;8.27;;
2772;SDS011;1394;47.044;15.744;2023-04-08T06:38:45;29.00;;;8.03;;
2772;SDS011;1394;47.044;15.744;2023-04-08T06:41:12;28.30;;;7.40;;
2772;SDS011;1394;47.044;15.744;2023-04-08T06:43:42;29.57;;;8.30;;
2772;SDS011;1394;47.044;15.744;2023-04-08T06:46:11;28.90;;;7.90;;
2772;SDS011;1394;47.044;15.744;2023-04-08T06:48:38;30.33;;;8.90;;
2772;SDS011;1394;47.044;15.744;2023-04-08T06:51:06;28.63;;;7.70;;
2772;SDS011;1394;47.044;15.744;2023-04-08T06:53:33;30.43;;;7.70;;
2772;SDS011;1394;47.044;15.744;2023-04-08T06:56:02;28.33;;;7.40;;
2772;SDS011;1394;47.044;15.744;2023-04-08T06:58:29;29.47;;;8.00;;
2772;SDS011;1394;47.044;15.744;2023-04-08T07:00:57;29.97;;;9.00;;
2772;SDS011;1394;47.044;15.744;2023-04-08T07:03:25;28.07;;;7.20;;
2772;SDS011;1394;47.044;15.744;2023-04-08T07:05:52;27.73;;;6.63;;
2772;SDS011;1394;47.044;15.744;2023-04-08T07:08:21;28.70;;;7.83;;
2772;SDS011;1394;47.044;15.744;2023-04-08T07:10:50;29.00;;;7.00;;
2772;SDS011;1394;47.044;15.744;2023-04-08T07:13:19;28.33;;;7.20;;
2772;SDS011;1394;47.044;15.744;2023-04-08T07:15:47;28.63;;;7.70;;
2772;SDS011;1394;47.044;15.744;2023-04-08T07:18:17;29.93;;;8.50;;
2772;SDS011;1394;47.044;15.744;2023-04-08T07:20:49;27.97;;;6.93;;
2772;SDS011;1394;47.044;15.744;2023-04-08T07:23:17;28.60;;;7.43;;
2772;SDS011;1394;47.044;15.744;2023-04-08T07:25:45;27.97;;;7.00;;
2772;SDS011;1394;47.044;15.744;2023-04-08T07:28:12;27.70;;;6.67;;
2772;SDS011;1394;47.044;15.744;2023-04-08T07:30:43;27.10;;;5.90;;
2772;SDS011;1394;47.044;15.744;2023-04-08T07:33:11;27.27;;;5.70;;
2772;SDS011;1394;47.044;15.744;2023-04-08T07:35:39;28.10;;;6.60;;
2772;SDS011;1394;47.044;15.744;2023-04-08T07:38:06;27.10;;;5.80;;
2772;SDS011;1394;47.044;15.744;2023-04-08T07:40:35;28.03;;;6.57;;
2772;SDS011;1394;47.044;15.744;2023-04-08T07:43:03;28.20;;;6.70;;
2772;SDS011;1394;47.044;15.744;2023-04-08T07:45:30;28.40;;;7.13;;
2772;SDS011;1394;47.044;15.744;2023-04-08T07:47:58;27.07;;;5.83;;
2772;SDS011;1394;47.044;15.744;2023-04-08T07:50:26;26.90;;;5.23;;
2772;SDS011;1394;47.044;15.744;2023-04-08T07:52:53;27.50;;;5.63;;
2772;SDS011;1394;47.044;15.744;2023-04-08T07:55:22;26.63;;;5.00;;
2772;SDS011;1394;47.044;15.744;2023-04-08T07:57:50;27.50;;;5.70;;
2772;SDS011;1394;47.044;15.744;2023-04-08T08:00:17;26.90;;;5.90;;
2772;SDS011;1394;47.044;15.744;2023-04-08T08:02:47;26.37;;;5.13;;
2772;SDS011;1394;47.044;15.744;2023-04-08T08:05:18;27.30;;;5.20;;
2772;SDS011;1394;47.044;15.744;2023-04-08T08:07:46;27.17;;;5.40;;
2772;SDS011;1394;47.044;15.744;2023-04-08T08:10:14;26.70;;;5.00;;
2772;SDS011;1394;47.044;15.744;2023-04-08T08:12:42;26.37;;;4.50;;
2772;SDS011;1394;47.044;15.744;2023-04-08T08:15:10;26.73;;;5.20;;
2772;SDS011;1394;47.044;15.744;2023-04-08T08:17:38;26.60;;;4.90;;
2772;SDS011;1394;47.044;15.744;2023-04-08T08:20:06;26.67;;;4.90;;
2772;SDS011;1394;47.044;15.744;2023-04-08T08:22:38;27.43;;;5.60;;
2772;SDS011;1394;47.044;15.744;2023-04-08T08:25:06;27.30;;;5.63;;
2772;SDS011;1394;47.044;15.744;2023-04-08T08:27:36;26.47;;;5.10;;
2772;SDS011;1394;47.044;15.744;2023-04-08T08:30:07;26.67;;;5.20;;
2772;SDS011;1394;47.044;15.744;2023-04-08T08:32:37;27.17;;;5.80;;
2772;SDS011;1394;47.044;15.744;2023-04-08T08:35:04;26.13;;;4.80;;
2772;SDS011;1394;47.044;15.744;2023-04-08T08:37:34;27.20;;;5.60;;
2772;SDS011;1394;47.044;15.744;2023-04-08T08:40:05;26.83;;;5.10;;
2772;SDS011;1394;47.044;15.744;2023-04-08T08:42:32;26.20;;;4.90;;
2772;SDS011;1394;47.044;15.744;2023-04-08T08:45:00;27.07;;;5.73;;
2772;SDS011;1394;47.044;15.744;2023-04-08T08:47:28;27.47;;;6.23;;
2772;SDS011;1394;47.044;15.744;2023-04-08T08:49:56;28.17;;;6.87;;
2772;SDS011;1394;47.044;15.744;2023-04-08T08:52:26;27.70;;;5.93;;
2772;SDS011;1394;47.044;15.744;2023-04-08T08:54:56;28.27;;;6.80;;
2772;SDS011;1394;47.044;15.744;2023-04-08T08:57:28;27.60;;;6.50;;
2772;SDS011;1394;47.044;15.744;2023-04-08T08:59:55;27.70;;;6.00;;
2772;SDS011;1394;47.044;15.744;2023-04-08T09:02:24;26.97;;;6.00;;
2772;SDS011;1394;47.044;15.744;2023-04-08T09:04:57;27.73;;;6.00;;
2772;SDS011;1394;47.044;15.744;2023-04-08T09:07:25;26.60;;;5.43;;
2772;SDS011;1394;47.044;15.744;2023-04-08T09:09:55;26.77;;;5.07;;
2772;SDS011;1394;47.044;15.744;2023-04-08T09:12:22;26.63;;;5.23;;
2772;SDS011;1394;47.044;15.744;2023-04-08T09:14:51;26.80;;;5.23;;
2772;SDS011;1394;47.044;15.744;2023-04-08T09:17:31;26.70;;;4.90;;
2772;SDS011;1394;47.044;15.744;2023-04-08T09:20:05;26.60;;;5.20;;
2772;SDS011;1394;47.044;15.744;2023-04-08T09:22:42;26.20;;;4.90;;
2772;SDS011;1394;47.044;15.744;2023-04-08T09:25:23;27.50;;;5.77;;
2772;SDS011;1394;47.044;15.744;2023-04-08T09:27:50;25.87;;;4.10;;
2772;SDS011;1394;47.044;15.744;2023-04-08T09:30:20;26.60;;;4.67;;
2772;SDS011;1394;47.044;15.744;2023-04-08T09:32:48;25.70;;;4.33;;
2772;SDS011;1394;47.044;15.744;2023-04-08T09:35:17;26.30;;;5.17;;
2772;SDS011;1394;47.044;15.744;2023-04-08T09:37:45;26.07;;;4.47;;
2772;SDS011;1394;47.044;15.744;2023-04-08T09:40:13;25.53;;;4.07;;
2772;SDS011;1394;47.044;15.744;2023-04-08T09:42:44;26.20;;;4.30;;
2772;SDS011;1394;47.044;15.744;2023-04-08T09:45:20;25.30;;;3.77;;
2772;SDS011;1394;47.044;15.744;2023-04-08T09:47:54;25.50;;;3.93;;
2772;SDS011;1394;47.044;15.744;2023-04-08T09:50:25;25.83;;;4.00;;
2772;SDS011;1394;47.044;15.744;2023-04-08T09:52:56;25.93;;;4.13;;
2772;SDS011;1394;47.044;15.744;2023-04-08T09:55:29;25.43;;;3.47;;
2772;SDS011;1394;47.044;15.744;2023-04-08T09:58:00;25.80;;;4.00;;
2772;SDS011;1394;47.044;15.744;2023-04-08T10:00:32;25.60;;;3.87;;
2772;SDS011;1394;47.044;15.744;2023-04-08T10:03:05;26.07;;;4.50;;
2772;SDS011;1394;47.044;15.744;2023-04-08T10:05:37;25.40;;;3.40;;
2772;SDS011;1394;47.044;15.744;2023-04-08T10:08:08;25.70;;;3.90;;
2772;SDS011;1394;47.044;15.744;2023-04-08T10:10:37;25.87;;;4.27;;
2772;SDS011;1394;47.044;15.744;2023-04-08T10:13:05;25.87;;;3.97;;
2772;SDS011;1394;47.044;15.744;2023-04-08T10:15:34;25.87;;;4.27;;
2772;SDS011;1394;47.044;15.744;2023-04-08T10:20:54;25.77;;;3.70;;
2772;SDS011;1394;47.044;15.744;2023-04-08T10:23:21;25.83;;;4.20;;
2772;SDS011;1394;47.044;15.744;2023-04-08T10:26:12;25.50;;;3.77;;
2772;SDS011;1394;47.044;15.744;2023-04-08T10:28:57;26.57;;;4.97;;
2772;SDS011;1394;47.044;15.744;2023-04-08T10:31:48;27.57;;;4.27;;
2772;SDS011;1394;47.044;15.744;2023-04-08T10:34:15;25.53;;;3.90;;
2772;SDS011;1394;47.044;15.744;2023-04-08T10:36:44;25.87;;;4.60;;
2772;SDS011;1394;47.044;15.744;2023-04-08T10:39:11;25.60;;;3.90;;
2772;SDS011;1394;47.044;15.744;2023-04-08T10:41:40;26.00;;;4.40;;
2772;SDS011;1394;47.044;15.744;2023-04-08T10:44:14;25.00;;;3.33;;
2772;SDS011;1394;47.044;15.744;2023-04-08T10:46:41;26.13;;;4.27;;
2772;SDS011;1394;47.044;15.744;2023-04-08T10:49:10;25.10;;;3.40;;
2772;SDS011;1394;47.044;15.744;2023-04-08T10:51:39;25.50;;;3.90;;
2772;SDS011;1394;47.044;15.744;2023-04-08T10:54:10;25.70;;;3.80;;
2772;SDS011;1394;47.044;15.744;2023-04-08T10:56:48;26.10;;;4.17;;
2772;SDS011;1394;47.044;15.744;2023-04-08T10:59:20;26.23;;;4.77;;
2772;SDS011;1394;47.044;15.744;2023-04-08T11:01:53;26.10;;;4.53;;
2772;SDS011;1394;47.044;15.744;2023-04-08T11:04:21;25.77;;;4.20;;
2772;SDS011;1394;47.044;15.744;2023-04-08T11:06:48;25.77;;;3.90;;
2772;SDS011;1394;47.044;15.744;2023-04-08T11:09:16;26.20;;;4.40;;
2772;SDS011;1394;47.044;15.744;2023-04-08T11:11:45;26.00;;;4.47;;
2772;SDS011;1394;47.044;15.744;2023-04-08T11:14:13;25.70;;;4.13;;
2772;SDS011;1394;47.044;15.744;2023-04-08T11:16:41;25.90;;;4.17;;
2772;SDS011;1394;47.044;15.744;2023-04-08T11:19:08;25.97;;;3.60;;
2772;SDS011;1394;47.044;15.744;2023-04-08T11:21:39;25.80;;;4.00;;
2772;SDS011;1394;47.044;15.744;2023-04-08T11:24:10;25.60;;;3.80;;
2772;SDS011;1394;47.044;15.744;2023-04-08T11:26:40;25.30;;;3.33;;
2772;SDS011;1394;47.044;15.744;2023-04-08T11:29:08;26.10;;;4.30;;
2772;SDS011;1394;47.044;15.744;2023-04-08T11:31:40;26.10;;;4.67;;
2772;SDS011;1394;47.044;15.744;2023-04-08T11:34:09;25.77;;;4.10;;
2772;SDS011;1394;47.044;15.744;2023-04-08T11:36:39;25.70;;;3.97;;
2772;SDS011;1394;47.044;15.744;2023-04-08T11:39:06;25.70;;;4.13;;
2772;SDS011;1394;47.044;15.744;2023-04-08T11:41:38;25.37;;;3.70;;
2772;SDS011;1394;47.044;15.744;2023-04-08T11:44:07;25.73;;;4.10;;
2772;SDS011;1394;47.044;15.744;2023-04-08T11:46:36;26.43;;;4.77;;
2772;SDS011;1394;47.044;15.744;2023-04-08T11:49:06;27.37;;;4.20;;
2772;SDS011;1394;47.044;15.744;2023-04-08T11:54:31;25.83;;;3.80;;
2772;SDS011;1394;47.044;15.744;2023-04-08T11:57:00;26.10;;;4.40;;
2772;SDS011;1394;47.044;15.744;2023-04-08T11:59:32;25.70;;;4.03;;
2772;SDS011;1394;47.044;15.744;2023-04-08T12:01:59;25.80;;;3.87;;
2772;SDS011;1394;47.044;15.744;2023-04-08T12:04:27;25.70;;;3.90;;
2772;SDS011;1394;47.044;15.744;2023-04-08T12:06:56;25.93;;;4.27;;
2772;SDS011;1394;47.044;15.744;2023-04-08T12:09:26;26.53;;;4.90;;
2772;SDS011;1394;47.044;15.744;2023-04-08T12:11:55;25.57;;;4.07;;
2772;SDS011;1394;47.044;15.744;2023-04-08T12:14:22;26.27;;;4.60;;
2772;SDS011;1394;47.044;15.744;2023-04-08T12:16:53;25.73;;;4.07;;
2772;SDS011;1394;47.044;15.744;2023-04-08T12:19:20;26.07;;;4.00;;
2772;SDS011;1394;47.044;15.744;2023-04-08T12:21:51;26.30;;;5.13;;
2772;SDS011;1394;47.044;15.744;2023-04-08T12:24:21;26.20;;;4.17;;
2772;SDS011;1394;47.044;15.744;2023-04-08T12:26:48;27.10;;;6.17;;
2772;SDS011;1394;47.044;15.744;2023-04-08T12:29:20;26.37;;;5.20;;
2772;SDS011;1394;47.044;15.744;2023-04-08T12:31:47;26.83;;;5.23;;
2772;SDS011;1394;47.044;15.744;2023-04-08T12:34:17;26.77;;;5.17;;
2772;SDS011;1394;47.044;15.744;2023-04-08T12:36:50;26.80;;;5.17;;
2772;SDS011;1394;47.044;15.744;2023-04-08T12:39:17;27.77;;;5.93;;
2772;SDS011;1394;47.044;15.744;2023-04-08T12:41:47;27.20;;;5.40;;
2772;SDS011;1394;47.044;15.744;2023-04-08T12:44:22;27.17;;;5.87;;
2772;SDS011;1394;47.044;15.744;2023-04-08T12:46:51;27.53;;;6.60;;
2772;SDS011;1394;47.044;15.744;2023-04-08T12:49:20;26.30;;;5.30;;
2772;SDS011;1394;47.044;15.744;2023-04-08T12:51:52;28.00;;;6.60;;
2772;SDS011;1394;47.044;15.744;2023-04-08T12:54:20;26.43;;;5.80;;
2772;SDS011;1394;47.044;15.744;2023-04-08T12:56:47;27.30;;;5.43;;
2772;SDS011;1394;47.044;15.744;2023-04-08T12:59:17;26.87;;;5.40;;
2772;SDS011;1394;47.044;15.744;2023-04-08T13:01:48;26.90;;;5.80;;
2772;SDS011;1394;47.044;15.744;2023-04-08T13:04:18;27.30;;;6.77;;
2772;SDS011;1394;47.044;15.744;2023-04-08T13:06:46;26.47;;;5.50;;
2772;SDS011;1394;47.044;15.744;2023-04-08T13:09:13;27.00;;;5.93;;
2772;SDS011;1394;47.044;15.744;2023-04-08T13:11:41;26.80;;;5.90;;
2772;SDS011;1394;47.044;15.744;2023-04-08T13:14:08;27.50;;;6.50;;
2772;SDS011;1394;47.044;15.744;2023-04-08T13:16:36;27.70;;;7.10;;
2772;SDS011;1394;47.044;15.744;2023-04-08T13:19:05;26.90;;;6.10;;
2772;SDS011;1394;47.044;15.744;2023-04-08T13:21:32;26.50;;;5.10;;
2772;SDS011;1394;47.044;15.744;2023-04-08T13:24:00;26.93;;;5.80;;
2772;SDS011;1394;47.044;15.744;2023-04-08T13:26:27;26.60;;;5.60;;
2772;SDS011;1394;47.044;15.744;2023-04-08T13:28:54;26.30;;;5.20;;
2772;SDS011;1394;47.044;15.744;2023-04-08T13:31:21;26.50;;;5.10;;
2772;SDS011;1394;47.044;15.744;2023-04-08T13:33:52;27.37;;;6.10;;
2772;SDS011;1394;47.044;15.744;2023-04-08T13:36:21;27.57;;;6.10;;
2772;SDS011;1394;47.044;15.744;2023-04-08T13:38:51;26.43;;;5.10;;
2772;SDS011;1394;47.044;15.744;2023-04-08T13:41:20;26.87;;;5.97;;
2772;SDS011;1394;47.044;15.744;2023-04-08T13:43:47;27.10;;;6.10;;
2772;SDS011;1394;47.044;15.744;2023-04-08T13:46:16;26.50;;;5.47;;
2772;SDS011;1394;47.044;15.744;2023-04-08T13:48:43;26.60;;;5.47;;
2772;SDS011;1394;47.044;15.744;2023-04-08T13:51:11;27.30;;;6.40;;
2772;SDS011;1394;47.044;15.744;2023-04-08T13:53:42;27.43;;;5.93;;
2772;SDS011;1394;47.044;15.744;2023-04-08T13:56:11;27.13;;;5.90;;
2772;SDS011;1394;47.044;15.744;2023-04-08T13:58:40;26.53;;;5.27;;
2772;SDS011;1394;47.044;15.744;2023-04-08T14:01:07;26.10;;;4.57;;
2772;SDS011;1394;47.044;15.744;2023-04-08T14:03:37;26.73;;;5.70;;
2772;SDS011;1394;47.044;15.744;2023-04-08T14:06:04;26.57;;;5.20;;
2772;SDS011;1394;47.044;15.744;2023-04-08T14:08:32;26.70;;;5.40;;
2772;SDS011;1394;47.044;15.744;2023-04-08T14:11:03;26.40;;;5.00;;
2772;SDS011;1394;47.044;15.744;2023-04-08T14:13:30;26.83;;;5.97;;
2772;SDS011;1394;47.044;15.744;2023-04-08T14:15:59;26.80;;;6.00;;
2772;SDS011;1394;47.044;15.744;2023-04-08T14:18:27;26.03;;;4.53;;
2772;SDS011;1394;47.044;15.744;2023-04-08T14:20:57;26.73;;;5.10;;
2772;SDS011;1394;47.044;15.744;2023-04-08T14:23:24;26.50;;;5.20;;
2772;SDS011;1394;47.044;15.744;2023-04-08T14:25:52;25.93;;;4.70;;
2772;SDS011;1394;47.044;15.744;2023-04-08T14:28:21;26.10;;;4.40;;
2772;SDS011;1394;47.044;15.744;2023-04-08T14:30:48;26.10;;;4.90;;
2772;SDS011;1394;47.044;15.744;2023-04-08T14:33:16;25.70;;;4.53;;
2772;SDS011;1394;47.044;15.744;2023-04-08T14:35:43;26.43;;;5.27;;
2772;SDS011;1394;47.044;15.744;2023-04-08T14:38:12;25.57;;;4.00;;
2772;SDS011;1394;47.044;15.744;2023-04-08T14:40:40;26.00;;;4.57;;
2772;SDS011;1394;47.044;15.744;2023-04-08T14:43:09;26.27;;;4.50;;
2772;SDS011;1394;47.044;15.744;2023-04-08T14:45:42;26.93;;;5.30;;
2772;SDS011;1394;47.044;15.744;2023-04-08T14:48:11;25.80;;;4.07;;
2772;SDS011;1394;47.044;15.744;2023-04-08T14:50:41;26.27;;;4.63;;
2772;SDS011;1394;47.044;15.744;2023-04-08T14:53:09;25.23;;;3.93;;
2772;SDS011;1394;47.044;15.744;2023-04-08T14:55:37;26.20;;;4.00;;
2772;SDS011;1394;47.044;15.744;2023-04-08T14:58:04;25.47;;;3.70;;
2772;SDS011;1394;47.044;15.744;2023-04-08T15:00:32;25.73;;;4.17;;
2772;SDS011;1394;47.044;15.744;2023-04-08T15:03:03;25.50;;;4.23;;